Time;durP1;ratioP1;P1;durP2;ratioP2;P2;SDS_P1;SDS_P2;PMS_P1;PMS_P2;Temp;Humidity;BMP_temperature;BMP_pressure;BME280_temperature;BME280_humidity;BME280_pressure;Samples;Min_cycle;Max_cycle;Signal;HPM_P1;HPM_P2
2021/08/24 00:00:50;;;;;;;9.50;6.43;;;16.60;1.00;;;;;;5050518;28;20195;-58
2021/08/24 00:03:17;;;;;;;6.20;5.37;;;16.60;1.00;;;;;;5049493;28;20485;-57
2021/08/24 00:05:44;;;;;;;6.23;5.40;;;16.60;1.00;;;;;;5049546;28;20441;-56
2021/08/24 00:08:09;;;;;;;6.70;6.00;;;16.50;1.00;;;;;;5049672;28;20964;-56
2021/08/24 00:10:38;;;;;;;7.63;5.53;;;16.50;1.00;;;;;;5049837;28;20440;-58
2021/08/24 00:13:05;;;;;;;7.30;5.80;;;16.50;4.60;;;;;;5048050;28;20278;-58
2021/08/24 00:15:30;;;;;;;8.40;5.63;;;16.40;5.00;;;;;;5049776;28;20417;-56
2021/08/24 00:17:58;;;;;;;6.30;5.50;;;16.40;8.50;;;;;;5049349;28;20443;-57
2021/08/24 00:20:30;;;;;;;7.00;5.80;;;16.50;11.80;;;;;;5049110;28;20185;-58
2021/08/24 00:22:56;;;;;;;7.20;6.27;;;16.60;7.40;;;;;;5049491;28;20435;-57
2021/08/24 00:25:22;;;;;;;7.40;5.67;;;16.60;2.90;;;;;;5048443;28;20492;-57
2021/08/24 00:27:47;;;;;;;8.10;5.67;;;16.50;5.90;;;;;;5049804;28;20513;-56
2021/08/24 00:30:13;;;;;;;6.93;6.20;;;16.40;1.10;;;;;;5048794;28;20192;-56
2021/08/24 00:32:38;;;;;;;6.27;5.10;;;16.40;3.60;;;;;;5048975;28;20193;-56
2021/08/24 00:35:05;;;;;;;6.23;5.07;;;16.40;1.40;;;;;;5049155;28;20816;-56
2021/08/24 00:37:30;;;;;;;7.50;4.90;;;16.30;2.80;;;;;;5049091;28;20193;-58
2021/08/24 00:39:56;;;;;;;7.03;5.30;;;16.20;5.80;;;;;;5049369;28;20531;-57
2021/08/24 00:42:21;;;;;;;5.40;4.90;;;16.20;9.30;;;;;;5054101;28;20280;-55
2021/08/24 00:44:48;;;;;;;5.63;5.07;;;16.30;11.90;;;;;;5049062;28;20190;-56
2021/08/24 00:47:17;;;;;;;7.37;5.53;;;16.30;9.10;;;;;;5048851;28;20188;-57
2021/08/24 00:49:44;;;;;;;5.83;5.20;;;16.30;12.40;;;;;;5049145;28;20512;-56
2021/08/24 00:52:19;;;;;;;6.47;5.20;;;16.40;12.60;;;;;;5048662;28;20429;-56
2021/08/24 00:54:46;;;;;;;6.53;5.87;;;16.40;19.00;;;;;;5048378;28;20549;-56
2021/08/24 00:57:20;;;;;;;5.50;4.73;;;16.50;13.30;;;;;;5048774;28;20461;-57
2021/08/24 00:59:47;;;;;;;6.93;5.40;;;16.40;12.60;;;;;;5049547;28;20437;-56
2021/08/24 01:02:15;;;;;;;5.20;4.70;;;16.40;14.60;;;;;;5048827;28;20465;-57
2021/08/24 01:04:41;;;;;;;6.00;4.87;;;16.40;16.40;;;;;;5050143;28;20516;-56
2021/08/24 01:07:43;;;;;;;7.77;4.90;;;16.40;17.10;;;;;;5049062;28;20448;-56
2021/08/24 01:10:26;;;;;;;6.30;4.63;;;16.50;17.40;;;;;;5037142;28;20243;-57
2021/08/24 01:13:24;;;;;;;5.63;5.07;;;16.60;11.80;;;;;;5047788;28;20445;-56
2021/08/24 01:15:55;;;;;;;5.40;4.90;;;16.50;5.70;;;;;;5047325;28;20407;-56
2021/08/24 01:18:27;;;;;;;6.47;5.80;;;16.70;1.00;;;;;;5047212;28;20474;-56
2021/08/24 01:21:16;;;;;;;6.63;5.97;;;16.70;1.00;;;;;;5048799;28;20413;-56
2021/08/24 01:24:06;;;;;;;5.80;5.17;;;16.70;1.00;;;;;;5050592;28;20418;-57
2021/08/24 01:26:44;;;;;;;10.33;5.17;;;16.70;1.00;;;;;;5051691;28;20437;-57
2021/08/24 01:29:27;;;;;;;7.30;5.03;;;16.60;1.00;;;;;;5046484;28;20444;-57
2021/08/24 01:32:05;;;;;;;6.43;5.23;;;16.50;1.00;;;;;;5050116;28;20419;-56
2021/08/24 01:35:20;;;;;;;7.30;5.00;;;16.40;1.00;;;;;;5052065;28;20445;-56
2021/08/24 01:38:13;;;;;;;7.00;5.03;;;16.50;1.00;;;;;;5046537;28;20476;-58
2021/08/24 01:40:57;;;;;;;5.27;4.30;;;16.50;1.00;;;;;;5049220;28;20479;-57
2021/08/24 01:43:32;;;;;;;4.73;4.23;;;16.40;1.00;;;;;;5048774;28;20928;-57
2021/08/24 01:46:12;;;;;;;5.47;4.37;;;16.30;1.00;;;;;;5055045;28;20975;-57
2021/08/24 01:48:40;;;;;;;6.30;5.27;;;16.50;1.00;;;;;;5051670;28;20789;-57
2021/08/24 01:51:14;;;;;;;5.37;4.57;;;16.60;1.00;;;;;;5052219;28;20448;-57
2021/08/24 01:53:49;;;;;;;5.50;4.83;;;16.60;1.00;;;;;;5051890;28;20469;-58
2021/08/24 01:56:20;;;;;;;6.00;4.83;;;16.70;1.00;;;;;;5051596;28;20456;-57
2021/08/24 01:58:51;;;;;;;7.60;6.70;;;16.70;1.00;;;;;;5051984;28;20454;-59
2021/08/24 02:01:21;;;;;;;7.73;5.80;;;16.70;1.00;;;;;;5051965;28;20446;-56
2021/08/24 02:03:51;;;;;;;6.60;5.90;;;16.60;1.00;;;;;;5051589;28;20833;-56
2021/08/24 02:06:24;;;;;;;6.43;5.83;;;16.50;1.00;;;;;;5051213;28;20839;-57
2021/08/24 02:08:54;;;;;;;7.70;6.93;;;16.50;1.00;;;;;;5051276;28;20440;-57
2021/08/24 02:11:22;;;;;;;7.73;6.90;;;16.60;1.00;;;;;;5051283;28;20451;-56
2021/08/24 02:13:49;;;;;;;7.20;6.50;;;16.60;1.00;;;;;;5051862;28;20867;-57
2021/08/24 02:16:21;;;;;;;9.77;8.20;;;16.60;1.00;;;;;;5057423;28;20440;-57
2021/08/24 02:18:56;;;;;;;11.43;8.90;;;16.60;1.00;;;;;;5049793;28;20480;-56
2021/08/24 02:21:32;;;;;;;10.23;9.33;;;16.60;1.00;;;;;;5050543;28;20550;-56
2021/08/24 02:24:06;;;;;;;10.93;8.90;;;16.60;1.00;;;;;;5058744;28;20476;-57
2021/08/24 02:26:34;;;;;;;11.20;10.00;;;16.60;1.00;;;;;;5056863;28;20523;-56
2021/08/24 02:29:00;;;;;;;10.50;8.80;;;16.60;1.00;;;;;;5050752;28;20451;-56
2021/08/24 02:31:50;;;;;;;11.67;9.20;;;16.60;1.00;;;;;;5051916;28;20443;-56
2021/08/24 02:34:52;;;;;;;10.30;9.40;;;16.60;1.00;;;;;;5048115;28;20501;-56
2021/08/24 02:37:55;;;;;;;11.17;9.60;;;16.60;1.00;;;;;;5050784;28;20462;-57
2021/08/24 02:40:52;;;;;;;10.57;9.47;;;16.60;1.00;;;;;;5044594;28;20591;-56
2021/08/24 02:43:39;;;;;;;10.10;9.10;;;16.40;1.00;;;;;;5050564;28;20966;-57
2021/08/24 02:46:21;;;;;;;10.77;9.40;;;16.50;1.00;;;;;;5050703;28;20956;-56
2021/08/24 02:48:54;;;;;;;10.60;9.40;;;16.50;1.00;;;;;;5050771;28;20446;-58
2021/08/24 02:51:21;;;;;;;10.00;8.67;;;16.50;1.00;;;;;;5048469;28;20491;-57
2021/08/24 02:54:18;;;;;;;9.00;8.10;;;16.40;1.00;;;;;;5049247;28;20485;-58
2021/08/24 02:56:44;;;;;;;10.40;9.40;;;16.50;1.00;;;;;;5042816;28;20418;-56
2021/08/24 02:59:10;;;;;;;8.60;7.80;;;16.40;1.00;;;;;;5050360;28;20948;-57
2021/08/24 03:01:36;;;;;;;8.80;7.90;;;16.40;1.00;;;;;;5050628;28;20634;-57
2021/08/24 03:04:03;;;;;;;9.53;8.60;;;16.50;1.00;;;;;;5050600;28;20531;-57
2021/08/24 03:06:31;;;;;;;9.60;8.70;;;16.50;1.00;;;;;;5048861;28;20202;-58
2021/08/24 03:08:57;;;;;;;10.87;8.63;;;16.50;1.00;;;;;;5050549;28;20578;-57
2021/08/24 03:11:27;;;;;;;10.27;8.80;;;16.60;1.00;;;;;;5050321;28;20444;-57
2021/08/24 03:14:05;;;;;;;10.10;9.20;;;16.50;1.00;;;;;;5050672;28;20440;-56
2021/08/24 03:16:42;;;;;;;9.00;8.10;;;16.40;1.00;;;;;;5051130;28;20822;-57
2021/08/24 03:19:16;;;;;;;10.63;8.57;;;16.40;1.00;;;;;;5050323;28;20464;-57
2021/08/24 03:21:43;;;;;;;12.53;9.70;;;16.50;1.00;;;;;;5049700;28;21237;-56
2021/08/24 03:24:11;;;;;;;11.10;9.90;;;16.50;1.00;;;;;;5050001;28;20453;-59
2021/08/24 03:26:40;;;;;;;9.37;8.53;;;16.40;1.00;;;;;;5050056;28;20449;-56
2021/08/24 03:29:08;;;;;;;10.43;8.80;;;16.30;1.00;;;;;;5050034;28;20465;-58
2021/08/24 03:31:35;;;;;;;10.60;9.47;;;16.40;1.00;;;;;;5049953;28;20439;-56
2021/08/24 03:34:01;;;;;;;11.10;8.40;;;16.40;1.00;;;;;;5049994;28;20450;-56
2021/08/24 03:36:26;;;;;;;11.47;8.80;;;16.40;1.00;;;;;;5049545;28;20440;-57
2021/08/24 03:38:52;;;;;;;10.43;8.27;;;16.40;1.00;;;;;;5048764;28;20208;-56
2021/08/24 03:41:17;;;;;;;9.10;8.30;;;16.40;1.00;;;;;;5049886;28;20585;-57
2021/08/24 03:43:43;;;;;;;9.00;7.70;;;16.40;1.00;;;;;;5050292;28;20201;-56
2021/08/24 03:46:08;;;;;;;9.13;6.67;;;16.40;1.00;;;;;;5049392;28;20256;-57
2021/08/24 03:48:34;;;;;;;7.97;7.17;;;16.40;1.00;;;;;;5049757;28;20290;-57
2021/08/24 03:51:00;;;;;;;7.30;6.70;;;16.40;1.00;;;;;;5052803;28;20213;-57
2021/08/24 03:53:25;;;;;;;8.00;6.50;;;16.30;1.00;;;;;;5051594;28;20697;-56
2021/08/24 03:55:51;;;;;;;8.60;6.60;;;16.40;1.00;;;;;;5050250;28;20643;-56
2021/08/24 03:58:16;;;;;;;7.07;6.37;;;16.40;1.00;;;;;;5049819;28;20204;-58
2021/08/24 04:00:46;;;;;;;7.63;6.70;;;16.50;1.00;;;;;;5049390;28;20184;-57
2021/08/24 04:03:12;;;;;;;7.80;6.53;;;16.40;1.00;;;;;;5049688;28;20228;-57
2021/08/24 04:05:38;;;;;;;8.40;7.50;;;16.20;1.00;;;;;;5050981;28;20476;-57
2021/08/24 04:08:04;;;;;;;7.47;6.77;;;16.20;1.00;;;;;;5049423;28;20498;-57
2021/08/24 04:10:30;;;;;;;6.50;5.90;;;16.30;1.00;;;;;;5049426;28;20189;-56
2021/08/24 04:12:55;;;;;;;8.50;6.13;;;16.20;1.00;;;;;;5051581;28;20615;-58
2021/08/24 04:15:21;;;;;;;7.00;5.23;;;16.30;1.00;;;;;;5049786;28;20204;-56
2021/08/24 04:17:46;;;;;;;5.60;4.60;;;16.30;1.00;;;;;;5049807;28;20208;-57
2021/08/24 04:20:14;;;;;;;5.33;4.70;;;16.30;1.00;;;;;;5049794;28;20209;-56
2021/08/24 04:22:41;;;;;;;5.00;4.60;;;16.30;1.00;;;;;;5049548;28;20617;-57
2021/08/24 04:25:07;;;;;;;4.60;4.20;;;16.30;1.00;;;;;;5049527;28;20485;-58
2021/08/24 04:27:33;;;;;;;6.13;4.57;;;16.30;1.00;;;;;;5052923;28;20421;-60
2021/08/24 04:29:59;;;;;;;6.00;4.07;;;16.40;1.00;;;;;;5049467;28;20949;-61
2021/08/24 04:32:27;;;;;;;5.33;4.50;;;16.40;1.00;;;;;;5048985;28;20282;-62
2021/08/24 04:34:53;;;;;;;5.40;3.60;;;16.40;1.00;;;;;;5049009;28;20712;-59
2021/08/24 04:37:19;;;;;;;5.43;4.93;;;16.30;1.00;;;;;;5049084;28;20426;-60
2021/08/24 04:39:45;;;;;;;5.00;4.50;;;16.40;1.00;;;;;;5049227;28;20873;-59
2021/08/24 04:42:10;;;;;;;5.93;4.30;;;16.40;1.00;;;;;;5048962;28;20265;-59
2021/08/24 04:44:36;;;;;;;5.13;4.13;;;16.40;1.00;;;;;;5049741;28;20227;-54
2021/08/24 04:47:01;;;;;;;4.73;4.33;;;16.50;1.00;;;;;;5048836;28;20189;-55
2021/08/24 04:49:27;;;;;;;6.23;5.20;;;16.50;1.00;;;;;;5049609;28;20691;-54
2021/08/24 04:51:52;;;;;;;6.50;4.73;;;16.40;1.00;;;;;;5049316;28;20188;-54
2021/08/24 04:54:18;;;;;;;4.43;4.03;;;16.40;1.00;;;;;;5049154;28;20224;-53
2021/08/24 04:56:44;;;;;;;4.77;4.27;;;16.40;1.00;;;;;;5048913;28;20185;-56
2021/08/24 04:59:10;;;;;;;5.37;4.80;;;16.50;1.00;;;;;;5051434;28;20299;-54
2021/08/24 05:01:35;;;;;;;5.67;5.10;;;16.50;1.00;;;;;;5057402;28;20418;-55
2021/08/24 05:04:01;;;;;;;5.43;4.93;;;16.40;1.00;;;;;;5053244;28;21092;-54
2021/08/24 05:06:27;;;;;;;7.40;5.10;;;16.40;1.00;;;;;;5057182;28;20274;-54
2021/08/24 05:08:53;;;;;;;5.40;5.00;;;16.40;1.00;;;;;;5051423;28;20202;-55
2021/08/24 05:11:19;;;;;;;5.13;4.63;;;16.30;1.00;;;;;;5051112;28;20447;-54
2021/08/24 05:13:44;;;;;;;6.90;5.70;;;16.20;1.00;;;;;;5052447;28;20546;-54
2021/08/24 05:16:10;;;;;;;8.73;4.90;;;16.30;1.00;;;;;;5052545;28;20195;-54
2021/08/24 05:18:37;;;;;;;5.43;4.90;;;16.40;1.00;;;;;;5053717;28;20270;-55
2021/08/24 05:21:10;;;;;;;8.90;5.67;;;16.40;1.00;;;;;;5052238;28;20482;-54
2021/08/24 05:23:36;;;;;;;8.10;4.90;;;16.40;1.00;;;;;;5051998;28;20489;-53
2021/08/24 05:26:07;;;;;;;6.13;5.60;;;16.50;1.00;;;;;;5052468;28;20806;-56
2021/08/24 05:28:33;;;;;;;6.57;5.90;;;16.60;1.00;;;;;;5058302;28;20194;-55
2021/08/24 05:30:59;;;;;;;7.63;6.83;;;16.60;1.00;;;;;;5050652;28;20423;-54
2021/08/24 05:33:24;;;;;;;7.10;6.17;;;16.60;1.00;;;;;;5051935;28;20469;-55
2021/08/24 05:35:50;;;;;;;6.90;6.20;;;16.60;1.00;;;;;;5052315;28;20652;-54
2021/08/24 05:38:15;;;;;;;7.20;5.83;;;16.70;1.00;;;;;;5049643;28;20269;-54
2021/08/24 05:40:41;;;;;;;8.50;6.17;;;16.60;1.00;;;;;;5052105;28;20268;-53
2021/08/24 05:43:06;;;;;;;6.60;5.90;;;16.70;1.00;;;;;;5052068;28;20249;-54
2021/08/24 05:45:32;;;;;;;9.40;6.50;;;16.80;1.00;;;;;;5051663;28;20613;-55
2021/08/24 05:47:57;;;;;;;8.23;6.10;;;16.80;1.00;;;;;;5051802;28;20197;-55
2021/08/24 05:50:26;;;;;;;7.37;6.70;;;16.80;1.00;;;;;;5052049;28;20182;-54
2021/08/24 05:52:52;;;;;;;7.20;5.60;;;16.70;1.00;;;;;;5051716;28;20194;-55
2021/08/24 05:55:17;;;;;;;7.00;5.73;;;16.80;1.00;;;;;;5051525;28;20522;-54
2021/08/24 05:57:43;;;;;;;6.17;5.67;;;16.80;1.00;;;;;;5051674;28;20496;-55
2021/08/24 06:00:09;;;;;;;9.03;6.73;;;16.80;1.00;;;;;;5051432;28;20329;-54
2021/08/24 06:02:36;;;;;;;7.30;6.67;;;16.80;1.00;;;;;;5050867;28;20193;-54
2021/08/24 06:05:03;;;;;;;9.40;6.90;;;16.80;1.00;;;;;;5051303;28;20524;-54
2021/08/24 06:07:29;;;;;;;6.93;6.20;;;16.90;1.00;;;;;;5050282;28;20425;-56
2021/08/24 06:09:54;;;;;;;7.00;6.30;;;16.80;1.00;;;;;;5050010;28;20418;-56
2021/08/24 06:12:20;;;;;;;7.53;6.90;;;16.80;1.00;;;;;;5051417;28;20213;-54
2021/08/24 06:14:46;;;;;;;7.93;7.13;;;16.70;1.00;;;;;;5049678;28;20177;-55
2021/08/24 06:17:11;;;;;;;12.00;7.07;;;16.70;1.00;;;;;;5051119;28;20254;-53
2021/08/24 06:19:37;;;;;;;8.80;8.00;;;16.60;1.00;;;;;;5051435;28;20736;-54
2021/08/24 06:22:03;;;;;;;11.93;8.60;;;16.70;1.00;;;;;;5050969;28;20210;-54
2021/08/24 06:24:30;;;;;;;9.23;8.33;;;16.70;1.00;;;;;;5050680;28;20253;-54
2021/08/24 06:26:57;;;;;;;8.67;7.30;;;16.80;1.00;;;;;;5051682;28;20799;-54
2021/08/24 06:29:22;;;;;;;9.40;8.50;;;16.80;1.00;;;;;;5051406;28;20508;-54
2021/08/24 06:31:51;;;;;;;9.20;8.27;;;16.90;1.00;;;;;;5050362;28;20425;-55
2021/08/24 06:34:17;;;;;;;9.83;7.83;;;16.80;1.00;;;;;;5050422;28;20257;-54
2021/08/24 06:36:43;;;;;;;8.67;7.83;;;16.80;1.00;;;;;;5057358;28;20499;-55
2021/08/24 06:39:10;;;;;;;8.93;8.17;;;16.90;1.00;;;;;;5051995;28;20818;-55
2021/08/24 06:41:37;;;;;;;9.77;8.87;;;16.90;1.00;;;;;;5050874;28;20184;-54
2021/08/24 06:44:04;;;;;;;9.83;7.93;;;16.80;1.00;;;;;;5050999;28;20448;-54
2021/08/24 06:46:30;;;;;;;9.87;9.00;;;16.90;1.00;;;;;;5050961;28;20452;-54
2021/08/24 06:48:56;;;;;;;9.87;9.00;;;16.90;1.00;;;;;;5050941;28;20456;-55
2021/08/24 06:51:21;;;;;;;10.47;8.03;;;17.00;1.00;;;;;;5050867;28;20190;-54
2021/08/24 06:53:47;;;;;;;9.40;8.50;;;17.00;1.00;;;;;;5050581;28;20247;-54
2021/08/24 06:56:12;;;;;;;9.43;8.47;;;17.00;1.00;;;;;;5050782;28;20185;-54
2021/08/24 06:58:39;;;;;;;12.80;8.67;;;17.10;1.00;;;;;;5050322;28;20737;-55
2021/08/24 07:01:05;;;;;;;9.40;7.97;;;16.90;1.00;;;;;;5050165;28;20173;-54
2021/08/24 07:03:31;;;;;;;9.27;8.47;;;16.70;1.00;;;;;;5051332;28;20440;-55
2021/08/24 07:05:57;;;;;;;10.00;9.10;;;16.70;1.00;;;;;;5049909;28;20409;-55
2021/08/24 07:08:22;;;;;;;9.13;8.23;;;16.80;1.00;;;;;;5049179;28;20210;-56
2021/08/24 07:10:48;;;;;;;10.50;9.50;;;17.00;1.00;;;;;;5050124;28;20178;-56
2021/08/24 07:13:17;;;;;;;10.90;8.67;;;17.10;1.00;;;;;;5050442;28;20180;-55
2021/08/24 07:15:43;;;;;;;10.47;9.47;;;17.20;1.00;;;;;;5050288;28;20593;-55
2021/08/24 07:18:08;;;;;;;12.40;9.37;;;17.20;1.00;;;;;;5049278;28;20558;-54
2021/08/24 07:20:34;;;;;;;12.80;9.60;;;17.30;1.00;;;;;;5049626;28;20182;-55
2021/08/24 07:23:02;;;;;;;11.13;10.13;;;17.40;1.00;;;;;;5050174;28;20214;-56
2021/08/24 07:25:30;;;;;;;17.80;10.00;;;17.40;1.00;;;;;;5049761;28;20470;-55
2021/08/24 07:27:57;;;;;;;10.80;9.80;;;17.20;1.00;;;;;;5048754;28;20546;-55
2021/08/24 07:30:24;;;;;;;10.73;9.63;;;17.40;1.00;;;;;;5049993;28;20444;-56
2021/08/24 07:32:50;;;;;;;10.67;9.70;;;17.50;1.00;;;;;;5050144;28;20658;-55
2021/08/24 07:35:17;;;;;;;11.10;10.10;;;17.50;1.00;;;;;;5049875;28;20573;-54
2021/08/24 07:37:43;;;;;;;14.63;9.43;;;17.30;1.00;;;;;;5049571;28;20544;-55
2021/08/24 07:40:10;;;;;;;13.03;10.87;;;17.20;1.00;;;;;;5049718;28;20575;-55
2021/08/24 07:42:35;;;;;;;11.20;10.20;;;17.20;1.00;;;;;;5053454;28;20517;-54
2021/08/24 07:45:01;;;;;;;10.87;9.97;;;17.00;1.00;;;;;;5054475;28;20489;-55
2021/08/24 07:47:26;;;;;;;11.90;9.50;;;17.10;1.00;;;;;;5049151;28;20623;-55
2021/08/24 07:49:52;;;;;;;14.57;10.97;;;17.20;1.00;;;;;;5048909;28;20188;-54
2021/08/24 07:52:18;;;;;;;13.13;10.80;;;17.00;1.00;;;;;;5050083;28;20643;-55
2021/08/24 07:54:43;;;;;;;18.23;12.03;;;16.70;1.00;;;;;;5049590;28;20212;-59
2021/08/24 07:57:09;;;;;;;12.70;11.40;;;16.60;1.00;;;;;;5049526;28;20209;-54
2021/08/24 07:59:34;;;;;;;13.13;11.90;;;16.60;1.00;;;;;;5053948;28;20187;-55
2021/08/24 08:02:00;;;;;;;13.83;12.53;;;16.60;1.00;;;;;;5049265;28;20265;-54
2021/08/24 08:04:26;;;;;;;13.37;12.17;;;16.70;1.00;;;;;;5049906;28;20263;-55
2021/08/24 08:06:52;;;;;;;12.40;11.20;;;16.70;1.00;;;;;;5048780;28;20193;-55
2021/08/24 08:09:21;;;;;;;13.37;12.13;;;16.80;1.00;;;;;;5049549;28;20416;-55
2021/08/24 08:11:51;;;;;;;14.33;12.93;;;16.80;1.00;;;;;;5047919;28;20241;-54
2021/08/24 08:14:17;;;;;;;13.63;12.33;;;16.70;1.00;;;;;;5048219;28;20506;-54
2021/08/24 08:16:43;;;;;;;14.00;12.90;;;16.80;1.00;;;;;;5049340;28;20427;-55
2021/08/24 08:19:09;;;;;;;14.93;13.43;;;16.90;1.00;;;;;;5053941;28;20927;-56
2021/08/24 08:21:36;;;;;;;14.27;13.00;;;16.90;1.00;;;;;;5049533;28;20213;-54
2021/08/24 08:24:03;;;;;;;13.43;12.07;;;16.80;1.00;;;;;;5049421;28;20213;-54
2021/08/24 08:26:29;;;;;;;12.63;11.43;;;17.00;1.00;;;;;;5053386;28;20440;-56
2021/08/24 08:28:55;;;;;;;14.53;12.90;;;17.00;1.00;;;;;;5049494;28;20423;-54
2021/08/24 08:31:22;;;;;;;13.17;11.90;;;17.20;1.00;;;;;;5062705;28;20450;-55
2021/08/24 08:33:48;;;;;;;14.43;13.03;;;17.30;1.00;;;;;;5050404;28;20490;-54
2021/08/24 08:36:15;;;;;;;16.53;13.80;;;17.10;1.00;;;;;;5052174;28;20519;-54
2021/08/24 08:38:41;;;;;;;14.73;13.30;;;17.10;1.00;;;;;;5053262;28;20510;-55
2021/08/24 08:41:18;;;;;;;16.83;13.47;;;17.00;1.00;;;;;;5053364;28;20506;-54
2021/08/24 08:44:19;;;;;;;14.40;13.20;;;17.00;1.00;;;;;;5053900;28;20791;-55
2021/08/24 08:46:47;;;;;;;15.23;13.73;;;17.00;1.00;;;;;;5053287;28;20422;-55
2021/08/24 08:49:37;;;;;;;12.60;11.37;;;17.00;1.00;;;;;;5069222;28;20405;-55
2021/08/24 08:52:33;;;;;;;13.77;11.97;;;17.00;1.00;;;;;;5055999;28;20475;-55
2021/08/24 08:55:15;;;;;;;14.77;13.37;;;16.80;1.00;;;;;;5053629;28;20439;-54
2021/08/24 08:57:58;;;;;;;13.70;12.47;;;16.60;1.00;;;;;;5057792;28;20464;-54
2021/08/24 09:00:41;;;;;;;16.10;14.63;;;16.50;1.00;;;;;;5056753;28;20443;-54
2021/08/24 09:03:17;;;;;;;15.67;14.17;;;16.60;1.00;;;;;;5053091;28;20457;-54
2021/08/24 09:05:46;;;;;;;15.13;13.67;;;16.70;1.00;;;;;;5065406;28;20833;-55
2021/08/24 09:08:15;;;;;;;14.00;12.80;;;16.70;1.00;;;;;;5053117;28;20409;-54
2021/08/24 09:10:51;;;;;;;16.00;14.40;;;16.80;1.00;;;;;;5053188;28;20540;-56
2021/08/24 09:13:24;;;;;;;15.77;14.30;;;16.90;1.00;;;;;;5051325;28;20529;-54
2021/08/24 09:16:26;;;;;;;18.43;14.17;;;17.00;1.00;;;;;;5052637;28;20902;-54
2021/08/24 09:19:03;;;;;;;14.83;13.43;;;16.90;1.00;;;;;;5052151;28;20529;-55
2021/08/24 09:21:34;;;;;;;14.97;13.13;;;16.80;1.00;;;;;;5052283;28;20452;-55
2021/08/24 09:24:06;;;;;;;15.23;13.83;;;16.80;1.00;;;;;;5061458;28;20443;-56
2021/08/24 09:26:55;;;;;;;14.57;13.07;;;16.70;1.00;;;;;;5052295;28;20447;-55
2021/08/24 09:29:28;;;;;;;15.90;14.40;;;16.80;1.00;;;;;;5050505;28;20480;-55
2021/08/24 09:31:54;;;;;;;17.57;15.73;;;16.90;1.00;;;;;;5067067;28;20443;-54
2021/08/24 09:34:34;;;;;;;14.03;12.73;;;17.10;1.00;;;;;;5052038;28;20542;-54
2021/08/24 09:37:00;;;;;;;15.67;14.07;;;17.10;1.00;;;;;;5051348;28;20443;-56
2021/08/24 09:39:46;;;;;;;16.57;15.07;;;17.10;1.00;;;;;;5052842;28;20436;-56
2021/08/24 09:42:12;;;;;;;18.40;16.70;;;17.20;1.00;;;;;;5052849;28;20175;-54
2021/08/24 09:44:37;;;;;;;19.80;18.07;;;17.20;1.00;;;;;;5052279;28;20960;-55
2021/08/24 09:47:23;;;;;;;18.57;16.77;;;17.20;1.00;;;;;;5052845;28;20248;-54
2021/08/24 09:49:50;;;;;;;19.30;17.67;;;17.10;1.00;;;;;;5049732;28;20206;-55
2021/08/24 09:52:22;;;;;;;19.70;17.90;;;17.10;1.00;;;;;;5068378;28;20429;-56
2021/08/24 09:55:00;;;;;;;19.20;17.37;;;17.10;1.00;;;;;;5052475;28;20990;-55
2021/08/24 09:57:29;;;;;;;18.00;15.30;;;17.10;1.00;;;;;;5053062;28;20661;-55
2021/08/24 10:00:03;;;;;;;16.67;15.10;;;17.20;1.00;;;;;;5052715;28;20439;-56
2021/08/24 10:02:40;;;;;;;18.37;16.83;;;17.20;1.00;;;;;;5052712;28;20487;-55
2021/08/24 10:05:31;;;;;;;17.53;15.87;;;17.20;1.00;;;;;;5051082;28;20930;-54
2021/08/24 10:08:01;;;;;;;18.10;16.50;;;17.30;1.00;;;;;;5052049;28;20437;-54
2021/08/24 10:10:30;;;;;;;18.30;16.40;;;17.50;1.00;;;;;;5052444;28;20425;-55
2021/08/24 10:12:58;;;;;;;18.07;16.27;;;17.40;1.00;;;;;;5051538;28;20483;-53
2021/08/24 10:15:31;;;;;;;18.77;16.90;;;17.50;1.00;;;;;;5052373;28;20890;-54
2021/08/24 10:18:14;;;;;;;17.63;16.13;;;17.50;1.00;;;;;;5051358;28;20474;-54
2021/08/24 10:21:10;;;;;;;19.57;17.73;;;17.40;1.00;;;;;;5051562;28;20441;-55
2021/08/24 10:23:40;;;;;;;18.53;16.63;;;17.30;1.00;;;;;;5048384;28;20931;-54
2021/08/24 10:26:09;;;;;;;17.03;15.53;;;17.20;1.00;;;;;;5051467;28;20436;-53
2021/08/24 10:28:46;;;;;;;17.70;16.10;;;17.10;1.00;;;;;;5059816;28;20793;-54
2021/08/24 10:31:30;;;;;;;16.20;14.50;;;17.10;1.00;;;;;;5068119;28;20438;-55
2021/08/24 10:34:06;;;;;;;17.17;15.57;;;17.10;1.00;;;;;;5051257;28;20467;-55
2021/08/24 10:36:45;;;;;;;18.70;15.93;;;17.20;1.00;;;;;;5051681;28;20471;-54
2021/08/24 10:39:25;;;;;;;16.77;15.37;;;17.40;1.00;;;;;;5050431;28;20414;-55
2021/08/24 10:42:07;;;;;;;17.00;15.50;;;17.70;1.00;;;;;;5051580;28;20420;-56
2021/08/24 10:44:56;;;;;;;17.90;16.00;;;17.60;1.00;;;;;;5047272;28;20447;-54
2021/08/24 10:47:26;;;;;;;18.33;16.30;;;17.80;1.00;;;;;;5051590;28;20440;-54
2021/08/24 10:49:57;;;;;;;17.27;15.80;;;18.80;1.00;;;;;;5051519;28;20424;-55
2021/08/24 10:52:48;;;;;;;17.70;16.10;;;17.80;1.00;;;;;;5050839;28;20432;-54
2021/08/24 10:55:27;;;;;;;16.90;15.27;;;18.00;1.00;;;;;;5050799;28;20414;-55
2021/08/24 10:58:16;;;;;;;16.53;15.13;;;18.00;1.00;;;;;;5050965;28;20538;-55
2021/08/24 11:01:03;;;;;;;16.50;15.10;;;18.00;1.00;;;;;;5047444;28;20505;-53
2021/08/24 11:03:57;;;;;;;17.13;15.53;;;17.90;1.00;;;;;;5051149;28;20940;-55
2021/08/24 11:06:31;;;;;;;15.73;14.13;;;18.00;1.00;;;;;;5051494;28;20432;-54
2021/08/24 11:09:01;;;;;;;15.80;14.30;;;18.00;1.00;;;;;;5050954;28;20452;-55
2021/08/24 11:11:38;;;;;;;15.40;14.13;;;18.10;1.00;;;;;;5050984;28;20448;-56
2021/08/24 11:14:16;;;;;;;15.30;14.00;;;18.40;1.00;;;;;;5050940;28;20430;-55
2021/08/24 11:17:07;;;;;;;14.60;13.40;;;18.60;1.00;;;;;;5045123;28;20450;-55
2021/08/24 11:19:38;;;;;;;14.50;13.30;;;18.90;1.00;;;;;;5035030;28;20440;-55
2021/08/24 11:22:23;;;;;;;15.90;14.50;;;19.20;1.00;;;;;;5050800;28;20441;-56
2021/08/24 11:25:09;;;;;;;16.70;15.20;;;19.40;1.00;;;;;;5047267;28;20739;-54
2021/08/24 11:27:41;;;;;;;16.93;15.27;;;19.30;1.00;;;;;;5050497;28;20445;-54
2021/08/24 11:30:23;;;;;;;14.20;13.00;;;19.40;1.00;;;;;;5050644;28;20411;-54
2021/08/24 11:32:57;;;;;;;14.43;13.23;;;19.70;1.00;;;;;;5045500;28;20460;-54
2021/08/24 11:35:35;;;;;;;12.93;11.93;;;19.80;1.00;;;;;;5050514;28;20444;-55
2021/08/24 11:38:05;;;;;;;13.37;12.30;;;20.10;1.00;;;;;;5049244;28;21020;-55
2021/08/24 11:40:48;;;;;;;13.03;11.93;;;20.30;1.00;;;;;;5050450;28;20524;-55
2021/08/24 11:43:24;;;;;;;14.30;13.10;;;20.30;1.00;;;;;;5062795;28;20849;-54
2021/08/24 11:45:52;;;;;;;12.87;11.80;;;20.10;1.00;;;;;;5046365;28;20453;-55
2021/08/24 11:48:20;;;;;;;13.50;12.30;;;20.20;1.00;;;;;;5049592;28;20433;-56
2021/08/24 11:51:08;;;;;;;12.80;11.73;;;20.20;1.00;;;;;;5048820;28;20442;-55
2021/08/24 11:53:49;;;;;;;12.63;11.43;;;20.30;1.00;;;;;;5048251;28;20426;-55
2021/08/24 11:56:26;;;;;;;12.73;11.63;;;20.10;1.00;;;;;;5052149;28;20918;-55
2021/08/24 11:58:51;;;;;;;11.97;11.07;;;20.10;1.00;;;;;;5049583;28;20501;-54
2021/08/24 12:01:20;;;;;;;12.33;11.33;;;20.20;1.00;;;;;;5053870;28;20737;-58
2021/08/24 12:03:54;;;;;;;11.00;10.00;;;20.20;1.00;;;;;;5050120;28;20571;-56
2021/08/24 12:06:40;;;;;;;11.27;10.17;;;20.20;1.00;;;;;;5050275;28;20506;-56
2021/08/24 12:09:08;;;;;;;11.03;10.10;;;20.30;1.00;;;;;;5049197;28;20991;-54
2021/08/24 12:11:39;;;;;;;11.57;10.57;;;20.30;1.00;;;;;;5049049;28;20418;-55
2021/08/24 12:14:40;;;;;;;11.23;10.13;;;20.00;1.00;;;;;;5046841;28;20446;-55
2021/08/24 12:17:14;;;;;;;11.63;10.60;;;19.90;1.00;;;;;;5027211;28;20444;-57
2021/08/24 12:19:53;;;;;;;11.00;10.17;;;20.10;1.00;;;;;;5058445;28;20414;-55
2021/08/24 12:22:33;;;;;;;11.67;10.60;;;20.40;1.00;;;;;;5052175;28;20424;-55
2021/08/24 12:25:07;;;;;;;10.77;9.93;;;20.60;1.00;;;;;;5050457;28;20413;-56
2021/08/24 12:27:50;;;;;;;11.43;10.53;;;20.80;1.00;;;;;;5052962;28;20885;-56
2021/08/24 12:30:21;;;;;;;11.23;10.33;;;20.90;1.00;;;;;;5046729;28;20564;-55
2021/08/24 12:32:50;;;;;;;10.43;9.63;;;21.20;1.00;;;;;;5049620;28;20428;-55
2021/08/24 12:35:30;;;;;;;10.80;10.00;;;21.50;1.00;;;;;;5048103;28;20484;-54
2021/08/24 12:37:58;;;;;;;11.00;9.93;;;21.30;1.00;;;;;;5049172;28;20479;-55
2021/08/24 12:40:24;;;;;;;9.73;8.93;;;21.30;1.00;;;;;;5048757;28;20521;-56
2021/08/24 12:43:02;;;;;;;11.00;10.10;;;21.40;1.00;;;;;;5052286;28;20421;-55
2021/08/24 12:45:30;;;;;;;11.57;10.57;;;21.10;1.00;;;;;;5050620;28;20187;-55
2021/08/24 12:48:22;;;;;;;12.20;11.10;;;21.00;1.00;;;;;;5052338;28;20422;-54
2021/08/24 12:51:06;;;;;;;11.10;10.27;;;20.80;1.00;;;;;;5050093;28;20543;-55
2021/08/24 12:54:02;;;;;;;12.17;10.33;;;21.00;1.00;;;;;;5046468;28;20592;-55
2021/08/24 12:56:42;;;;;;;10.40;9.50;;;21.00;1.00;;;;;;5046328;28;20442;-55
2021/08/24 12:59:32;;;;;;;10.80;9.90;;;21.00;1.00;;;;;;5054699;28;20508;-56
2021/08/24 13:02:17;;;;;;;8.87;8.17;;;21.30;1.00;;;;;;5047785;28;20435;-56
2021/08/24 13:04:48;;;;;;;9.63;8.80;;;21.60;1.00;;;;;;5049336;28;20473;-55
2021/08/24 13:07:21;;;;;;;10.83;8.70;;;21.70;1.00;;;;;;5051572;28;20418;-55
2021/08/24 13:09:51;;;;;;;9.40;8.60;;;21.80;1.00;;;;;;5048541;28;20425;-54
2021/08/24 13:12:34;;;;;;;8.53;7.83;;;21.90;1.00;;;;;;5047950;28;20426;-54